Rechercher aéroport 
image banner adimage banner adimage banner ad
image banner ad

CL40 - Antelope Valley Service Center

Situé à Lancaster, United States

ICAO - CL40, IATA -

Données fournies par Airmate  

Information générale

Coordonnées: N34°38'53" W118°8'43"
Élévation : 2522 feet MSL.
Variation magnétique : 14° East
Voir autres Aéroports à California

Données opérationnelles

Special qualification required
Heure actuelle UTC:
Heure actuelle locale:
Météo à : KPMD - Palmdale Usaf Plant 42 ( 6 km )
METAR: KPMD 260853Z AUTO 21008KT 10SM CLR 21/08 A2999 RMK AO2 SLP126 T02110083 58002
TAF: KPMD 260559Z 2606/2706 21008KT P6SM FEW120 FM261600 VRB03KT P6SM SKC FM262200 24015G25KT P6SM SKC
Voir NOTAMs / SUP AIP / TFR affectant cet aéroport [VIEW]
Fréquences de communication: [VIEW]

Pistes:

Coordonnées de l'aéroport

Adresse: Lancaster United States

Vue satellite de CL40